sensor_id;sensor_type;location;lat;lon;timestamp;pressure;altitude;pressure_sealevel;temperature
12007;BMP180;6062;47.294;12.182;2022-11-15T00:00:53;80281.00;;;5.80
12007;BMP180;6062;47.294;12.182;2022-11-15T00:03:23;80279.00;;;5.80
12007;BMP180;6062;47.294;12.182;2022-11-15T00:05:49;80273.00;;;5.80
12007;BMP180;6062;47.294;12.182;2022-11-15T00:08:15;80286.00;;;5.70
12007;BMP180;6062;47.294;12.182;2022-11-15T00:10:42;80280.00;;;5.60
12007;BMP180;6062;47.294;12.182;2022-11-15T00:13:12;80278.00;;;5.70
12007;BMP180;6062;47.294;12.182;2022-11-15T00:15:40;80277.00;;;5.60
12007;BMP180;6062;47.294;12.182;2022-11-15T00:18:12;80277.00;;;5.70
12007;BMP180;6062;47.294;12.182;2022-11-15T00:20:39;80269.00;;;5.70
12007;BMP180;6062;47.294;12.182;2022-11-15T00:23:05;80275.00;;;5.70
12007;BMP180;6062;47.294;12.182;2022-11-15T00:25:31;80284.00;;;5.70
12007;BMP180;6062;47.294;12.182;2022-11-15T00:27:59;80279.00;;;5.70
12007;BMP180;6062;47.294;12.182;2022-11-15T00:30:26;80276.00;;;5.70
12007;BMP180;6062;47.294;12.182;2022-11-15T00:32:52;80275.00;;;5.70
12007;BMP180;6062;47.294;12.182;2022-11-15T00:35:18;80274.00;;;5.70
12007;BMP180;6062;47.294;12.182;2022-11-15T00:37:44;80276.00;;;5.70
12007;BMP180;6062;47.294;12.182;2022-11-15T00:40:11;80275.00;;;5.80
12007;BMP180;6062;47.294;12.182;2022-11-15T00:42:38;80278.00;;;5.80
12007;BMP180;6062;47.294;12.182;2022-11-15T00:45:04;80264.00;;;5.80
12007;BMP180;6062;47.294;12.182;2022-11-15T00:47:30;80272.00;;;5.80
12007;BMP180;6062;47.294;12.182;2022-11-15T00:49:56;80270.00;;;5.80
12007;BMP180;6062;47.294;12.182;2022-11-15T00:52:22;80264.00;;;5.80
12007;BMP180;6062;47.294;12.182;2022-11-15T00:54:48;80259.00;;;5.80
12007;BMP180;6062;47.294;12.182;2022-11-15T00:57:13;80252.00;;;5.80
12007;BMP180;6062;47.294;12.182;2022-11-15T00:59:39;80263.00;;;5.80
12007;BMP180;6062;47.294;12.182;2022-11-15T01:02:05;80250.00;;;5.80
12007;BMP180;6062;47.294;12.182;2022-11-15T01:04:30;80260.00;;;5.80
12007;BMP180;6062;47.294;12.182;2022-11-15T01:06:56;80262.00;;;5.80
12007;BMP180;6062;47.294;12.182;2022-11-15T01:09:22;80266.00;;;5.80
12007;BMP180;6062;47.294;12.182;2022-11-15T01:11:47;80260.00;;;5.80
12007;BMP180;6062;47.294;12.182;2022-11-15T01:14:13;80248.00;;;5.80
12007;BMP180;6062;47.294;12.182;2022-11-15T01:16:39;80242.00;;;5.80
12007;BMP180;6062;47.294;12.182;2022-11-15T01:19:05;80248.00;;;5.80
12007;BMP180;6062;47.294;12.182;2022-11-15T01:21:30;80249.00;;;5.70
12007;BMP180;6062;47.294;12.182;2022-11-15T01:23:57;80245.00;;;5.70
12007;BMP180;6062;47.294;12.182;2022-11-15T01:26:24;80252.00;;;5.70
12007;BMP180;6062;47.294;12.182;2022-11-15T01:28:50;80244.00;;;5.70
12007;BMP180;6062;47.294;12.182;2022-11-15T01:31:19;80244.00;;;5.70
12007;BMP180;6062;47.294;12.182;2022-11-15T01:33:46;80247.00;;;5.60
12007;BMP180;6062;47.294;12.182;2022-11-15T01:36:18;80252.00;;;5.60
12007;BMP180;6062;47.294;12.182;2022-11-15T01:38:45;80240.00;;;5.60
12007;BMP180;6062;47.294;12.182;2022-11-15T01:41:19;80241.00;;;5.50
12007;BMP180;6062;47.294;12.182;2022-11-15T01:43:50;80237.00;;;5.50
12007;BMP180;6062;47.294;12.182;2022-11-15T01:46:27;80224.00;;;5.50
12007;BMP180;6062;47.294;12.182;2022-11-15T01:48:57;80227.00;;;5.50
12007;BMP180;6062;47.294;12.182;2022-11-15T01:51:27;80225.00;;;5.40
12007;BMP180;6062;47.294;12.182;2022-11-15T01:54:05;80217.00;;;5.40
12007;BMP180;6062;47.294;12.182;2022-11-15T01:56:43;80217.00;;;5.40
12007;BMP180;6062;47.294;12.182;2022-11-15T01:59:12;80216.00;;;5.30
12007;BMP180;6062;47.294;12.182;2022-11-15T02:01:38;80223.00;;;5.30
12007;BMP180;6062;47.294;12.182;2022-11-15T02:06:37;80215.00;;;5.30
12007;BMP180;6062;47.294;12.182;2022-11-15T02:09:03;80211.00;;;5.20
12007;BMP180;6062;47.294;12.182;2022-11-15T02:11:29;80214.00;;;5.20
12007;BMP180;6062;47.294;12.182;2022-11-15T02:13:57;80194.00;;;5.20
12007;BMP180;6062;47.294;12.182;2022-11-15T02:17:02;80201.00;;;5.30
12007;BMP180;6062;47.294;12.182;2022-11-15T02:22:46;80193.00;;;5.20
12007;BMP180;6062;47.294;12.182;2022-11-15T02:35:16;80187.00;;;5.20
12007;BMP180;6062;47.294;12.182;2022-11-15T02:41:15;80173.00;;;5.10
12007;BMP180;6062;47.294;12.182;2022-11-15T02:44:13;80174.00;;;5.10
12007;BMP180;6062;47.294;12.182;2022-11-15T02:46:54;80167.00;;;5.10
12007;BMP180;6062;47.294;12.182;2022-11-15T02:49:45;80169.00;;;5.10
12007;BMP180;6062;47.294;12.182;2022-11-15T02:52:19;80170.00;;;5.20
12007;BMP180;6062;47.294;12.182;2022-11-15T02:55:04;80161.00;;;5.20
12007;BMP180;6062;47.294;12.182;2022-11-15T02:57:54;80161.00;;;5.20
12007;BMP180;6062;47.294;12.182;2022-11-15T03:00:21;80164.00;;;5.20
12007;BMP180;6062;47.294;12.182;2022-11-15T03:06:04;80147.00;;;5.10
12007;BMP180;6062;47.294;12.182;2022-11-15T03:11:25;80148.00;;;5.10
12007;BMP180;6062;47.294;12.182;2022-11-15T03:14:24;80145.00;;;5.10
12007;BMP180;6062;47.294;12.182;2022-11-15T03:17:23;80146.00;;;5.10
12007;BMP180;6062;47.294;12.182;2022-11-15T03:19:54;80149.00;;;5.10
12007;BMP180;6062;47.294;12.182;2022-11-15T03:22:24;80141.00;;;5.10
12007;BMP180;6062;47.294;12.182;2022-11-15T03:25:01;80143.00;;;5.20
12007;BMP180;6062;47.294;12.182;2022-11-15T03:27:37;80136.00;;;5.20
12007;BMP180;6062;47.294;12.182;2022-11-15T03:30:07;80138.00;;;5.20
12007;BMP180;6062;47.294;12.182;2022-11-15T03:32:52;80143.00;;;5.20
12007;BMP180;6062;47.294;12.182;2022-11-15T03:35:23;80143.00;;;5.20
12007;BMP180;6062;47.294;12.182;2022-11-15T03:38:22;80134.00;;;5.20
12007;BMP180;6062;47.294;12.182;2022-11-15T03:40:58;80134.00;;;5.20
12007;BMP180;6062;47.294;12.182;2022-11-15T03:43:54;80124.00;;;5.30
12007;BMP180;6062;47.294;12.182;2022-11-15T03:46:32;80131.00;;;5.30
12007;BMP180;6062;47.294;12.182;2022-11-15T03:49:14;80120.00;;;5.30
12007;BMP180;6062;47.294;12.182;2022-11-15T03:51:41;80122.00;;;5.30
12007;BMP180;6062;47.294;12.182;2022-11-15T03:54:06;80116.00;;;5.30
12007;BMP180;6062;47.294;12.182;2022-11-15T03:56:32;80115.00;;;5.30
12007;BMP180;6062;47.294;12.182;2022-11-15T03:58:58;80126.00;;;5.40
12007;BMP180;6062;47.294;12.182;2022-11-15T04:01:23;80117.00;;;5.40
12007;BMP180;6062;47.294;12.182;2022-11-15T04:03:49;80117.00;;;5.40
12007;BMP180;6062;47.294;12.182;2022-11-15T04:06:15;80104.00;;;5.40
12007;BMP180;6062;47.294;12.182;2022-11-15T04:08:40;80107.00;;;5.40
12007;BMP180;6062;47.294;12.182;2022-11-15T04:11:06;80109.00;;;5.40
12007;BMP180;6062;47.294;12.182;2022-11-15T04:13:32;80109.00;;;5.40
12007;BMP180;6062;47.294;12.182;2022-11-15T04:15:57;80097.00;;;5.30
12007;BMP180;6062;47.294;12.182;2022-11-15T04:18:23;80101.00;;;5.30
12007;BMP180;6062;47.294;12.182;2022-11-15T04:20:49;80106.00;;;5.30
12007;BMP180;6062;47.294;12.182;2022-11-15T04:23:33;80103.00;;;5.30
12007;BMP180;6062;47.294;12.182;2022-11-15T04:26:31;80089.00;;;5.30
12007;BMP180;6062;47.294;12.182;2022-11-15T04:28:57;80089.00;;;5.30
12007;BMP180;6062;47.294;12.182;2022-11-15T04:31:42;80088.00;;;5.30
12007;BMP180;6062;47.294;12.182;2022-11-15T04:34:07;80087.00;;;5.20
12007;BMP180;6062;47.294;12.182;2022-11-15T04:36:33;80091.00;;;5.20
12007;BMP180;6062;47.294;12.182;2022-11-15T04:39:17;80086.00;;;5.20
12007;BMP180;6062;47.294;12.182;2022-11-15T04:41:43;80080.00;;;5.20
12007;BMP180;6062;47.294;12.182;2022-11-15T04:44:08;80095.00;;;5.20
12007;BMP180;6062;47.294;12.182;2022-11-15T04:46:35;80083.00;;;5.20
12007;BMP180;6062;47.294;12.182;2022-11-15T04:49:00;80077.00;;;5.20
12007;BMP180;6062;47.294;12.182;2022-11-15T04:51:26;80081.00;;;5.20
12007;BMP180;6062;47.294;12.182;2022-11-15T04:53:52;80065.00;;;5.20
12007;BMP180;6062;47.294;12.182;2022-11-15T04:56:18;80070.00;;;5.30
12007;BMP180;6062;47.294;12.182;2022-11-15T04:58:43;80071.00;;;5.30
12007;BMP180;6062;47.294;12.182;2022-11-15T05:01:12;80063.00;;;5.30
12007;BMP180;6062;47.294;12.182;2022-11-15T05:03:43;80073.00;;;5.30
12007;BMP180;6062;47.294;12.182;2022-11-15T05:06:28;80064.00;;;5.30
12007;BMP180;6062;47.294;12.182;2022-11-15T05:08:54;80051.00;;;5.40
12007;BMP180;6062;47.294;12.182;2022-11-15T05:11:20;80060.00;;;5.40
12007;BMP180;6062;47.294;12.182;2022-11-15T05:13:46;80058.00;;;5.40
12007;BMP180;6062;47.294;12.182;2022-11-15T05:16:12;80055.00;;;5.40
12007;BMP180;6062;47.294;12.182;2022-11-15T05:18:38;80055.00;;;5.40
12007;BMP180;6062;47.294;12.182;2022-11-15T05:21:13;80056.00;;;5.40
12007;BMP180;6062;47.294;12.182;2022-11-15T05:23:39;80058.00;;;5.40
12007;BMP180;6062;47.294;12.182;2022-11-15T05:26:07;80047.00;;;5.40
12007;BMP180;6062;47.294;12.182;2022-11-15T05:28:34;80049.00;;;5.40
12007;BMP180;6062;47.294;12.182;2022-11-15T05:31:14;80055.00;;;5.40
12007;BMP180;6062;47.294;12.182;2022-11-15T05:33:41;80040.00;;;5.30
12007;BMP180;6062;47.294;12.182;2022-11-15T05:38:55;80048.00;;;5.30
12007;BMP180;6062;47.294;12.182;2022-11-15T05:41:44;80034.00;;;5.30
12007;BMP180;6062;47.294;12.182;2022-11-15T05:44:16;80034.00;;;5.30
12007;BMP180;6062;47.294;12.182;2022-11-15T05:46:43;80045.00;;;5.30
12007;BMP180;6062;47.294;12.182;2022-11-15T05:49:13;80039.00;;;5.30
12007;BMP180;6062;47.294;12.182;2022-11-15T05:51:42;80048.00;;;5.30
12007;BMP180;6062;47.294;12.182;2022-11-15T05:54:11;80042.00;;;5.20
12007;BMP180;6062;47.294;12.182;2022-11-15T05:56:37;80038.00;;;5.30
12007;BMP180;6062;47.294;12.182;2022-11-15T05:59:03;80050.00;;;5.20
12007;BMP180;6062;47.294;12.182;2022-11-15T06:01:29;80043.00;;;5.20
12007;BMP180;6062;47.294;12.182;2022-11-15T06:03:55;80040.00;;;5.20
12007;BMP180;6062;47.294;12.182;2022-11-15T06:06:21;80039.00;;;5.30
12007;BMP180;6062;47.294;12.182;2022-11-15T06:08:47;80036.00;;;5.30
12007;BMP180;6062;47.294;12.182;2022-11-15T06:11:13;80036.00;;;5.30
12007;BMP180;6062;47.294;12.182;2022-11-15T06:13:39;80032.00;;;5.30
12007;BMP180;6062;47.294;12.182;2022-11-15T06:16:05;80033.00;;;5.40
12007;BMP180;6062;47.294;12.182;2022-11-15T06:18:35;80032.00;;;5.30
12007;BMP180;6062;47.294;12.182;2022-11-15T06:21:01;80022.00;;;5.40
12007;BMP180;6062;47.294;12.182;2022-11-15T06:23:30;80020.00;;;5.40
12007;BMP180;6062;47.294;12.182;2022-11-15T06:25:58;80020.00;;;5.40
12007;BMP180;6062;47.294;12.182;2022-11-15T06:28:27;80021.00;;;5.40
12007;BMP180;6062;47.294;12.182;2022-11-15T06:30:53;80016.00;;;5.50
12007;BMP180;6062;47.294;12.182;2022-11-15T06:33:19;80015.00;;;5.50
12007;BMP180;6062;47.294;12.182;2022-11-15T06:35:44;80013.00;;;5.50
12007;BMP180;6062;47.294;12.182;2022-11-15T06:38:11;80021.00;;;5.50
12007;BMP180;6062;47.294;12.182;2022-11-15T06:40:38;80030.00;;;5.50
12007;BMP180;6062;47.294;12.182;2022-11-15T06:43:06;80035.00;;;5.60
12007;BMP180;6062;47.294;12.182;2022-11-15T06:45:32;80035.00;;;5.60
12007;BMP180;6062;47.294;12.182;2022-11-15T06:47:58;80022.00;;;5.60
12007;BMP180;6062;47.294;12.182;2022-11-15T06:50:24;80021.00;;;5.80
12007;BMP180;6062;47.294;12.182;2022-11-15T06:52:50;80027.00;;;6.20
12007;BMP180;6062;47.294;12.182;2022-11-15T06:55:16;80018.00;;;6.80
12007;BMP180;6062;47.294;12.182;2022-11-15T06:57:52;80031.00;;;7.60
12007;BMP180;6062;47.294;12.182;2022-11-15T07:00:19;80034.00;;;8.70
12007;BMP180;6062;47.294;12.182;2022-11-15T07:02:46;80031.00;;;9.80
12007;BMP180;6062;47.294;12.182;2022-11-15T07:05:13;80030.00;;;10.90
12007;BMP180;6062;47.294;12.182;2022-11-15T07:07:40;80034.00;;;12.00
12007;BMP180;6062;47.294;12.182;2022-11-15T07:10:07;80032.00;;;13.10
12007;BMP180;6062;47.294;12.182;2022-11-15T07:12:33;80035.00;;;14.20
12007;BMP180;6062;47.294;12.182;2022-11-15T07:14:59;80039.00;;;15.30
12007;BMP180;6062;47.294;12.182;2022-11-15T07:17:25;80042.00;;;16.40
12007;BMP180;6062;47.294;12.182;2022-11-15T07:19:50;80041.00;;;17.40
12007;BMP180;6062;47.294;12.182;2022-11-15T07:22:16;80041.00;;;18.30
12007;BMP180;6062;47.294;12.182;2022-11-15T07:24:42;80039.00;;;19.20
12007;BMP180;6062;47.294;12.182;2022-11-15T07:27:07;80042.00;;;20.00
12007;BMP180;6062;47.294;12.182;2022-11-15T07:29:33;80043.00;;;20.70
12007;BMP180;6062;47.294;12.182;2022-11-15T07:31:58;80049.00;;;21.40
12007;BMP180;6062;47.294;12.182;2022-11-15T07:34:24;80042.00;;;22.10
12007;BMP180;6062;47.294;12.182;2022-11-15T07:36:50;80048.00;;;22.70
12007;BMP180;6062;47.294;12.182;2022-11-15T07:39:15;80042.00;;;23.20
12007;BMP180;6062;47.294;12.182;2022-11-15T07:41:41;80048.00;;;23.80
12007;BMP180;6062;47.294;12.182;2022-11-15T07:44:08;80046.00;;;24.30
12007;BMP180;6062;47.294;12.182;2022-11-15T07:46:34;80050.00;;;24.70
12007;BMP180;6062;47.294;12.182;2022-11-15T07:49:00;80046.00;;;25.10
12007;BMP180;6062;47.294;12.182;2022-11-15T07:51:25;80045.00;;;25.50
12007;BMP180;6062;47.294;12.182;2022-11-15T07:53:51;80052.00;;;25.90
12007;BMP180;6062;47.294;12.182;2022-11-15T07:56:17;80059.00;;;26.30
12007;BMP180;6062;47.294;12.182;2022-11-15T07:58:45;80055.00;;;26.70
12007;BMP180;6062;47.294;12.182;2022-11-15T08:01:11;80057.00;;;27.10
12007;BMP180;6062;47.294;12.182;2022-11-15T08:03:37;80060.00;;;27.50
12007;BMP180;6062;47.294;12.182;2022-11-15T08:06:03;80053.00;;;27.80
12007;BMP180;6062;47.294;12.182;2022-11-15T08:08:29;80054.00;;;28.00
12007;BMP180;6062;47.294;12.182;2022-11-15T08:10:54;80056.00;;;28.30
12007;BMP180;6062;47.294;12.182;2022-11-15T08:13:20;80054.00;;;28.60
12007;BMP180;6062;47.294;12.182;2022-11-15T08:15:46;80056.00;;;28.90
12007;BMP180;6062;47.294;12.182;2022-11-15T08:18:17;80067.00;;;29.20
12007;BMP180;6062;47.294;12.182;2022-11-15T08:20:43;80063.00;;;29.50
12007;BMP180;6062;47.294;12.182;2022-11-15T08:23:11;80058.00;;;29.80
12007;BMP180;6062;47.294;12.182;2022-11-15T08:25:38;80062.00;;;30.10
12007;BMP180;6062;47.294;12.182;2022-11-15T08:28:06;80059.00;;;30.40
12007;BMP180;6062;47.294;12.182;2022-11-15T08:30:41;80054.00;;;30.50
12007;BMP180;6062;47.294;12.182;2022-11-15T08:33:11;80051.00;;;30.60
12007;BMP180;6062;47.294;12.182;2022-11-15T08:35:38;80055.00;;;30.70
12007;BMP180;6062;47.294;12.182;2022-11-15T08:38:04;80058.00;;;30.80
12007;BMP180;6062;47.294;12.182;2022-11-15T08:40:30;80061.00;;;30.80
12007;BMP180;6062;47.294;12.182;2022-11-15T08:42:55;80052.00;;;30.80
12007;BMP180;6062;47.294;12.182;2022-11-15T08:45:21;80047.00;;;30.90
12007;BMP180;6062;47.294;12.182;2022-11-15T08:47:47;80039.00;;;31.00
12007;BMP180;6062;47.294;12.182;2022-11-15T08:50:12;80042.00;;;31.20
12007;BMP180;6062;47.294;12.182;2022-11-15T08:52:38;80044.00;;;31.50
12007;BMP180;6062;47.294;12.182;2022-11-15T08:55:05;80039.00;;;31.80
12007;BMP180;6062;47.294;12.182;2022-11-15T08:57:30;80043.00;;;32.10
12007;BMP180;6062;47.294;12.182;2022-11-15T08:59:57;80041.00;;;32.40
12007;BMP180;6062;47.294;12.182;2022-11-15T09:02:22;80037.00;;;32.60
12007;BMP180;6062;47.294;12.182;2022-11-15T09:04:48;80039.00;;;32.80
12007;BMP180;6062;47.294;12.182;2022-11-15T09:07:14;80032.00;;;32.90
12007;BMP180;6062;47.294;12.182;2022-11-15T09:09:39;80039.00;;;33.10
12007;BMP180;6062;47.294;12.182;2022-11-15T09:12:06;80034.00;;;33.30
12007;BMP180;6062;47.294;12.182;2022-11-15T09:14:32;80031.00;;;33.40
12007;BMP180;6062;47.294;12.182;2022-11-15T09:16:59;80030.00;;;33.60
12007;BMP180;6062;47.294;12.182;2022-11-15T09:19:25;80020.00;;;33.70
12007;BMP180;6062;47.294;12.182;2022-11-15T09:21:50;80025.00;;;33.90
12007;BMP180;6062;47.294;12.182;2022-11-15T09:24:17;80024.00;;;34.00
12007;BMP180;6062;47.294;12.182;2022-11-15T09:26:43;80027.00;;;34.20
12007;BMP180;6062;47.294;12.182;2022-11-15T09:29:09;80023.00;;;34.40
12007;BMP180;6062;47.294;12.182;2022-11-15T09:31:34;80023.00;;;34.50
12007;BMP180;6062;47.294;12.182;2022-11-15T09:34:00;80022.00;;;34.70
12007;BMP180;6062;47.294;12.182;2022-11-15T09:36:26;80020.00;;;34.80
12007;BMP180;6062;47.294;12.182;2022-11-15T09:38:52;80018.00;;;35.00
12007;BMP180;6062;47.294;12.182;2022-11-15T09:44:51;80025.00;;;35.30
12007;BMP180;6062;47.294;12.182;2022-11-15T09:47:52;80014.00;;;35.50
12007;BMP180;6062;47.294;12.182;2022-11-15T09:50:47;80009.00;;;35.60
12007;BMP180;6062;47.294;12.182;2022-11-15T09:53:24;80005.00;;;35.80
12007;BMP180;6062;47.294;12.182;2022-11-15T09:56:03;80013.00;;;35.90
12007;BMP180;6062;47.294;12.182;2022-11-15T10:01:18;80008.00;;;36.10
12007;BMP180;6062;47.294;12.182;2022-11-15T10:03:45;80010.00;;;36.00
12007;BMP180;6062;47.294;12.182;2022-11-15T10:06:25;80010.00;;;36.00
12007;BMP180;6062;47.294;12.182;2022-11-15T10:09:10;80004.00;;;36.00
12007;BMP180;6062;47.294;12.182;2022-11-15T10:11:39;80000.00;;;36.00
12007;BMP180;6062;47.294;12.182;2022-11-15T10:14:20;80002.00;;;36.00
12007;BMP180;6062;47.294;12.182;2022-11-15T10:22:52;79989.00;;;35.90
12007;BMP180;6062;47.294;12.182;2022-11-15T10:25:25;79990.00;;;36.00
12007;BMP180;6062;47.294;12.182;2022-11-15T10:30:52;79986.00;;;36.00
12007;BMP180;6062;47.294;12.182;2022-11-15T10:33:37;79987.00;;;35.80
12007;BMP180;6062;47.294;12.182;2022-11-15T10:38:54;79982.00;;;35.40
12007;BMP180;6062;47.294;12.182;2022-11-15T10:41:35;79975.00;;;35.30
12007;BMP180;6062;47.294;12.182;2022-11-15T10:46:45;79972.00;;;34.90
12007;BMP180;6062;47.294;12.182;2022-11-15T10:49:22;79972.00;;;34.80
12007;BMP180;6062;47.294;12.182;2022-11-15T10:52:18;79969.00;;;34.70
12007;BMP180;6062;47.294;12.182;2022-11-15T10:55:33;79957.00;;;34.70
12007;BMP180;6062;47.294;12.182;2022-11-15T10:57:37;79954.00;;;34.60
12007;BMP180;6062;47.294;12.182;2022-11-15T11:00:26;79944.00;;;34.50
12007;BMP180;6062;47.294;12.182;2022-11-15T11:10:55;79947.00;;;33.70
12007;BMP180;6062;47.294;12.182;2022-11-15T11:13:29;79930.00;;;33.60
12007;BMP180;6062;47.294;12.182;2022-11-15T11:22:19;79924.00;;;33.50
12007;BMP180;6062;47.294;12.182;2022-11-15T11:25:19;79924.00;;;33.30
12007;BMP180;6062;47.294;12.182;2022-11-15T11:31:20;79908.00;;;33.10
12007;BMP180;6062;47.294;12.182;2022-11-15T11:34:23;79908.00;;;33.00
12007;BMP180;6062;47.294;12.182;2022-11-15T11:37:19;79906.00;;;33.00
12007;BMP180;6062;47.294;12.182;2022-11-15T11:48:47;79895.00;;;33.10
12007;BMP180;6062;47.294;12.182;2022-11-15T11:51:28;79889.00;;;33.20
12007;BMP180;6062;47.294;12.182;2022-11-15T11:54:25;79886.00;;;33.10
12007;BMP180;6062;47.294;12.182;2022-11-15T11:56:54;79887.00;;;33.10
12007;BMP180;6062;47.294;12.182;2022-11-15T12:00:31;79891.00;;;33.00
12007;BMP180;6062;47.294;12.182;2022-11-15T12:02:50;79885.00;;;32.90
12007;BMP180;6062;47.294;12.182;2022-11-15T12:05:31;79881.00;;;32.80
12007;BMP180;6062;47.294;12.182;2022-11-15T12:08:31;79885.00;;;32.60
12007;BMP180;6062;47.294;12.182;2022-11-15T12:11:17;79877.00;;;32.40
12007;BMP180;6062;47.294;12.182;2022-11-15T12:13:53;79876.00;;;32.00
12007;BMP180;6062;47.294;12.182;2022-11-15T12:16:27;79878.00;;;31.60
12007;BMP180;6062;47.294;12.182;2022-11-15T12:18:59;79879.00;;;31.20
12007;BMP180;6062;47.294;12.182;2022-11-15T12:22:02;79875.00;;;30.60
12007;BMP180;6062;47.294;12.182;2022-11-15T12:24:45;79868.00;;;29.90
12007;BMP180;6062;47.294;12.182;2022-11-15T12:27:39;79879.00;;;29.20
12007;BMP180;6062;47.294;12.182;2022-11-15T12:30:19;79871.00;;;28.50
12007;BMP180;6062;47.294;12.182;2022-11-15T12:32:56;79881.00;;;27.80
12007;BMP180;6062;47.294;12.182;2022-11-15T12:35:39;79868.00;;;27.00
12007;BMP180;6062;47.294;12.182;2022-11-15T12:38:11;79872.00;;;26.20
12007;BMP180;6062;47.294;12.182;2022-11-15T12:43:41;79861.00;;;24.60
12007;BMP180;6062;47.294;12.182;2022-11-15T12:48:54;79853.00;;;23.20
12007;BMP180;6062;47.294;12.182;2022-11-15T12:57:33;79856.00;;;21.20
12007;BMP180;6062;47.294;12.182;2022-11-15T13:03:22;79857.00;;;20.00
12007;BMP180;6062;47.294;12.182;2022-11-15T13:06:01;79852.00;;;19.50
12007;BMP180;6062;47.294;12.182;2022-11-15T13:08:53;79852.00;;;19.10
12007;BMP180;6062;47.294;12.182;2022-11-15T13:11:44;79838.00;;;18.60
12007;BMP180;6062;47.294;12.182;2022-11-15T13:19:41;79838.00;;;17.60
12007;BMP180;6062;47.294;12.182;2022-11-15T13:22:10;79837.00;;;17.40
12007;BMP180;6062;47.294;12.182;2022-11-15T13:24:55;79830.00;;;17.10
12007;BMP180;6062;47.294;12.182;2022-11-15T13:27:21;79826.00;;;16.90
12007;BMP180;6062;47.294;12.182;2022-11-15T13:29:47;79824.00;;;16.70
12007;BMP180;6062;47.294;12.182;2022-11-15T13:32:15;79826.00;;;16.50
12007;BMP180;6062;47.294;12.182;2022-11-15T13:34:47;79834.00;;;16.30
12007;BMP180;6062;47.294;12.182;2022-11-15T13:39:49;79819.00;;;15.80
12007;BMP180;6062;47.294;12.182;2022-11-15T13:42:17;79823.00;;;15.60
12007;BMP180;6062;47.294;12.182;2022-11-15T13:45:04;79825.00;;;15.40
12007;BMP180;6062;47.294;12.182;2022-11-15T13:47:31;79811.00;;;15.10
12007;BMP180;6062;47.294;12.182;2022-11-15T13:49:58;79813.00;;;14.90
12007;BMP180;6062;47.294;12.182;2022-11-15T13:52:32;79807.00;;;14.70
12007;BMP180;6062;47.294;12.182;2022-11-15T13:55:05;79812.00;;;14.50
12007;BMP180;6062;47.294;12.182;2022-11-15T13:57:55;79817.00;;;14.30
12007;BMP180;6062;47.294;12.182;2022-11-15T14:00:37;79817.00;;;14.10
12007;BMP180;6062;47.294;12.182;2022-11-15T14:03:22;79821.00;;;13.90
12007;BMP180;6062;47.294;12.182;2022-11-15T14:08:33;79804.00;;;13.50
12007;BMP180;6062;47.294;12.182;2022-11-15T14:11:25;79812.00;;;13.40
12007;BMP180;6062;47.294;12.182;2022-11-15T14:16:50;79806.00;;;13.20
12007;BMP180;6062;47.294;12.182;2022-11-15T14:22:20;79803.00;;;13.00
12007;BMP180;6062;47.294;12.182;2022-11-15T14:25:24;79800.00;;;12.90
12007;BMP180;6062;47.294;12.182;2022-11-15T14:28:16;79805.00;;;12.90
12007;BMP180;6062;47.294;12.182;2022-11-15T14:30:44;79802.00;;;12.90
12007;BMP180;6062;47.294;12.182;2022-11-15T14:33:32;79796.00;;;12.90
12007;BMP180;6062;47.294;12.182;2022-11-15T14:36:38;79800.00;;;12.90
12007;BMP180;6062;47.294;12.182;2022-11-15T14:38:56;79800.00;;;12.90
12007;BMP180;6062;47.294;12.182;2022-11-15T14:41:25;79798.00;;;12.90
12007;BMP180;6062;47.294;12.182;2022-11-15T14:43:57;79795.00;;;12.90
12007;BMP180;6062;47.294;12.182;2022-11-15T14:46:23;79790.00;;;12.80
12007;BMP180;6062;47.294;12.182;2022-11-15T14:48:49;79802.00;;;12.80
12007;BMP180;6062;47.294;12.182;2022-11-15T14:51:17;79790.00;;;12.70
12007;BMP180;6062;47.294;12.182;2022-11-15T14:53:45;79787.00;;;12.70
12007;BMP180;6062;47.294;12.182;2022-11-15T14:56:11;79792.00;;;12.60
12007;BMP180;6062;47.294;12.182;2022-11-15T14:58:38;79794.00;;;12.60
12007;BMP180;6062;47.294;12.182;2022-11-15T15:01:24;79789.00;;;12.50
12007;BMP180;6062;47.294;12.182;2022-11-15T15:03:51;79785.00;;;12.40
12007;BMP180;6062;47.294;12.182;2022-11-15T15:06:18;79798.00;;;12.40
12007;BMP180;6062;47.294;12.182;2022-11-15T15:08:45;79788.00;;;12.30
12007;BMP180;6062;47.294;12.182;2022-11-15T15:11:27;79789.00;;;12.30
12007;BMP180;6062;47.294;12.182;2022-11-15T15:13:54;79786.00;;;12.20
12007;BMP180;6062;47.294;12.182;2022-11-15T15:16:23;79774.00;;;12.20
12007;BMP180;6062;47.294;12.182;2022-11-15T15:18:50;79779.00;;;12.10
12007;BMP180;6062;47.294;12.182;2022-11-15T15:21:27;79777.00;;;12.10
12007;BMP180;6062;47.294;12.182;2022-11-15T15:23:54;79774.00;;;12.10
12007;BMP180;6062;47.294;12.182;2022-11-15T15:26:21;79771.00;;;12.00
12007;BMP180;6062;47.294;12.182;2022-11-15T15:28:46;79767.00;;;12.00
12007;BMP180;6062;47.294;12.182;2022-11-15T15:31:14;79762.00;;;11.90
12007;BMP180;6062;47.294;12.182;2022-11-15T15:33:40;79761.00;;;11.90
12007;BMP180;6062;47.294;12.182;2022-11-15T15:36:11;79760.00;;;11.80
12007;BMP180;6062;47.294;12.182;2022-11-15T15:38:37;79749.00;;;11.70
12007;BMP180;6062;47.294;12.182;2022-11-15T15:41:11;79758.00;;;11.70
12007;BMP180;6062;47.294;12.182;2022-11-15T15:43:37;79757.00;;;11.60
12007;BMP180;6062;47.294;12.182;2022-11-15T15:46:03;79743.00;;;11.60
12007;BMP180;6062;47.294;12.182;2022-11-15T15:48:28;79750.00;;;11.50
12007;BMP180;6062;47.294;12.182;2022-11-15T15:50:54;79756.00;;;11.40
12007;BMP180;6062;47.294;12.182;2022-11-15T15:53:20;79747.00;;;11.40
12007;BMP180;6062;47.294;12.182;2022-11-15T15:55:45;79753.00;;;11.40
12007;BMP180;6062;47.294;12.182;2022-11-15T15:58:11;79748.00;;;11.40
12007;BMP180;6062;47.294;12.182;2022-11-15T16:00:37;79752.00;;;11.40
12007;BMP180;6062;47.294;12.182;2022-11-15T16:03:03;79747.00;;;11.40
12007;BMP180;6062;47.294;12.182;2022-11-15T16:05:29;79753.00;;;11.40
12007;BMP180;6062;47.294;12.182;2022-11-15T16:07:54;79748.00;;;11.40
12007;BMP180;6062;47.294;12.182;2022-11-15T16:10:27;79746.00;;;11.40
12007;BMP180;6062;47.294;12.182;2022-11-15T16:12:55;79742.00;;;11.30
12007;BMP180;6062;47.294;12.182;2022-11-15T16:15:24;79741.00;;;11.30
12007;BMP180;6062;47.294;12.182;2022-11-15T16:17:53;79742.00;;;11.30
12007;BMP180;6062;47.294;12.182;2022-11-15T16:20:44;79736.00;;;11.20
12007;BMP180;6062;47.294;12.182;2022-11-15T16:23:16;79732.00;;;11.20
12007;BMP180;6062;47.294;12.182;2022-11-15T16:25:53;79727.00;;;11.20